createdAt,value
2019-02-18T00:12:51.453Z,1004.64
2019-02-18T00:41:18.587Z,1004.62
2019-02-18T01:09:53.868Z,1004.51
2019-02-18T01:38:26.265Z,1004.46
2019-02-18T02:06:59.897Z,1004.22
2019-02-18T02:35:37.534Z,1003.89
2019-02-18T03:04:10.331Z,1003.77
2019-02-18T03:32:48.581Z,1003.72
2019-02-18T04:01:22.894Z,1003.68
2019-02-18T04:29:55.965Z,1003.68
2019-02-18T04:58:34.017Z,1003.73
2019-02-18T05:27:08.965Z,1003.71
2019-02-18T05:55:40.645Z,1003.7
2019-02-18T06:24:18.088Z,1003.8
2019-02-18T06:52:52.343Z,1003.94
2019-02-18T07:21:38.633Z,1004.04
2019-02-18T07:50:21.294Z,1003.99
2019-02-18T08:18:38.337Z,1003.86
2019-02-18T08:47:23.897Z,1003.61
2019-02-18T09:16:13.619Z,1003.35
2019-02-18T09:44:55.583Z,1003.07
2019-02-18T10:13:42.719Z,1002.88
2019-02-18T10:42:23.565Z,1002.54
2019-02-18T11:11:17.607Z,1002.22
2019-02-18T11:39:37.162Z,1001.75
2019-02-18T12:08:22.956Z,1001.38
2019-02-18T12:37:03.622Z,1000.81
2019-02-18T13:05:48.919Z,1000.43
2019-02-18T13:34:34.104Z,999.98
2019-02-18T14:03:08.223Z,999.67
2019-02-18T14:31:49.025Z,999.48
2019-02-18T15:00:28.412Z,999.38
2019-02-18T15:29:04.426Z,999.11
2019-02-18T15:57:42.099Z,999.09
2019-02-18T16:26:10.697Z,999.21
2019-02-18T16:54:42.276Z,999.36
2019-02-18T17:23:09.143Z,999.41
2019-02-18T17:51:40.274Z,999.3
2019-02-18T18:20:14.037Z,999.34
2019-02-18T18:48:50.835Z,999.26
2019-02-18T19:17:28.849Z,999.27
2019-02-18T19:45:59.983Z,999.21
2019-02-18T20:14:37.774Z,999.2
2019-02-18T20:43:09.464Z,999.14
2019-02-18T21:11:44.675Z,999.1
2019-02-18T21:40:20.105Z,998.95
2019-02-18T22:08:58.179Z,998.96
2019-02-18T22:37:35.267Z,999.03
2019-02-18T23:06:14.392Z,998.97
2019-02-18T23:34:36.721Z,999.08
